createdAt,value
2019-05-22T00:00:48.831Z,89.25
2019-05-22T00:03:21.969Z,89.29
2019-05-22T00:05:54.227Z,88.76
2019-05-22T00:08:25.433Z,88.54
2019-05-22T00:11:01.845Z,88.14
2019-05-22T00:13:32.160Z,88.21
2019-05-22T00:16:03.999Z,88.14
2019-05-22T00:18:35.388Z,88.97
2019-05-22T00:21:07.548Z,89.36
2019-05-22T00:23:38.587Z,89.32
2019-05-22T00:26:11.129Z,88.90
2019-05-22T00:28:41.606Z,89.17
2019-05-22T00:31:13.906Z,89.15
2019-05-22T00:33:44.170Z,89.00
2019-05-22T00:36:17.049Z,88.98
2019-05-22T00:38:47.450Z,89.04
2019-05-22T00:41:20.761Z,88.82
2019-05-22T00:43:51.607Z,88.96
2019-05-22T00:46:23.482Z,88.85
2019-05-22T00:48:54.410Z,89.01
2019-05-22T00:51:47.201Z,89.22
2019-05-22T00:54:34.564Z,88.70
2019-05-22T00:57:24.282Z,88.62
2019-05-22T01:00:00.476Z,88.15
2019-05-22T01:02:33.411Z,87.81
2019-05-22T01:05:05.032Z,87.52
2019-05-22T01:07:40.162Z,87.54
2019-05-22T01:10:12.119Z,87.73
2019-05-22T01:12:44.059Z,87.94
2019-05-22T01:15:20.703Z,88.02
2019-05-22T01:17:51.385Z,88.33
2019-05-22T01:20:24.403Z,88.62
2019-05-22T01:22:57.298Z,89.09
2019-05-22T01:25:28.955Z,88.88
2019-05-22T01:28:02.360Z,88.92
2019-05-22T01:30:52.262Z,88.91
2019-05-22T01:33:26.488Z,87.86
2019-05-22T01:36:13.647Z,88.29
2019-05-22T01:38:45.512Z,88.00
2019-05-22T01:41:21.062Z,87.97
2019-05-22T01:43:52.782Z,87.80
2019-05-22T01:46:24.675Z,87.79
2019-05-22T01:48:59.626Z,87.65
2019-05-22T01:51:31.493Z,87.02
2019-05-22T01:54:02.692Z,86.02
2019-05-22T01:56:34.820Z,86.37
2019-05-22T01:59:07.680Z,86.63
2019-05-22T02:01:40.267Z,86.99
2019-05-22T02:04:10.388Z,87.34
2019-05-22T02:06:41.507Z,87.53
2019-05-22T02:09:33.869Z,87.22
2019-05-22T02:12:10.471Z,87.05
2019-05-22T02:14:44.589Z,86.42
2019-05-22T02:17:18.288Z,86.23
2019-05-22T02:19:49.018Z,85.87
2019-05-22T02:22:19.212Z,85.40
2019-05-22T02:24:51.882Z,85.11
2019-05-22T02:27:24.037Z,85.10
2019-05-22T02:29:56.149Z,85.37
2019-05-22T02:32:28.759Z,85.45
2019-05-22T02:34:58.966Z,85.70
2019-05-22T02:37:30.599Z,85.80
2019-05-22T02:40:01.292Z,85.56
2019-05-22T02:42:32.995Z,85.90
2019-05-22T02:45:05.161Z,85.80
2019-05-22T02:47:36.766Z,86.27
2019-05-22T02:50:08.188Z,85.89
2019-05-22T02:52:38.582Z,86.18
2019-05-22T02:55:08.777Z,85.73
2019-05-22T02:57:38.940Z,84.82
2019-05-22T03:00:10.962Z,84.47
2019-05-22T03:02:50.527Z,84.51
2019-05-22T03:05:22.805Z,83.87
2019-05-22T03:07:53.798Z,84.00
2019-05-22T03:10:26.643Z,83.82
2019-05-22T03:12:58.532Z,84.16
2019-05-22T03:15:30.075Z,83.90
2019-05-22T03:18:05.017Z,83.60
2019-05-22T03:20:35.842Z,83.83
2019-05-22T03:23:41.939Z,82.71
2019-05-22T03:26:13.307Z,82.89
2019-05-22T03:28:46.689Z,83.88
2019-05-22T03:31:19.034Z,84.34
2019-05-22T03:33:50.885Z,84.93
2019-05-22T03:36:22.279Z,84.60
2019-05-22T03:38:52.951Z,84.66
2019-05-22T03:41:23.205Z,85.37
2019-05-22T03:43:55.663Z,85.74
2019-05-22T03:46:35.883Z,86.98
2019-05-22T03:49:08.008Z,87.72
2019-05-22T03:51:38.976Z,87.92
2019-05-22T03:54:10.903Z,88.70
2019-05-22T03:56:42.401Z,88.63
2019-05-22T03:59:13.476Z,88.54
2019-05-22T04:01:45.051Z,87.51
2019-05-22T04:04:37.164Z,87.18
2019-05-22T04:07:10.825Z,86.89
2019-05-22T04:09:43.019Z,86.34
2019-05-22T04:12:14.545Z,85.98
2019-05-22T04:14:46.055Z,86.19
2019-05-22T04:17:17.574Z,86.00
2019-05-22T04:19:51.435Z,86.22
2019-05-22T04:22:21.539Z,85.98
2019-05-22T04:24:51.869Z,86.22
2019-05-22T04:27:23.561Z,86.01
2019-05-22T04:29:54.030Z,86.10
2019-05-22T04:32:35.055Z,86.12
2019-05-22T04:35:09.300Z,85.96
2019-05-22T04:37:40.747Z,86.21
2019-05-22T04:40:51.343Z,86.23
2019-05-22T04:43:23.779Z,86.13
2019-05-22T04:45:56.971Z,85.60
2019-05-22T04:48:27.750Z,85.33
2019-05-22T04:51:07.323Z,84.90
2019-05-22T04:53:38.488Z,85.02
2019-05-22T04:56:11.492Z,84.85
2019-05-22T04:58:42.214Z,85.11
2019-05-22T05:01:14.096Z,85.04
2019-05-22T05:03:44.367Z,84.84
2019-05-22T05:06:15.021Z,85.50
2019-05-22T05:08:45.587Z,85.53
2019-05-22T05:11:17.535Z,85.24
2019-05-22T05:14:06.744Z,85.36
2019-05-22T05:16:38.797Z,85.21
2019-05-22T05:19:08.965Z,85.81
2019-05-22T05:21:40.078Z,85.66
2019-05-22T05:24:10.201Z,85.65
2019-05-22T05:26:41.337Z,84.59
2019-05-22T05:29:33.512Z,84.07
2019-05-22T05:32:06.186Z,84.04
2019-05-22T05:34:47.929Z,83.86
2019-05-22T05:37:23.103Z,83.96
2019-05-22T05:40:41.677Z,84.23
2019-05-22T05:43:15.806Z,84.44
2019-05-22T05:45:51.986Z,84.48
2019-05-22T05:48:23.775Z,83.62
2019-05-22T05:51:30.402Z,82.54
2019-05-22T05:54:06.200Z,82.90
2019-05-22T05:56:39.236Z,81.26
2019-05-22T05:59:12.243Z,80.97
2019-05-22T06:01:48.859Z,81.61
2019-05-22T06:04:34.639Z,81.07
2019-05-22T06:07:18.985Z,81.91
2019-05-22T06:10:13.393Z,81.94
2019-05-22T06:12:43.883Z,81.98
2019-05-22T06:15:15.088Z,81.97
2019-05-22T06:18:44.452Z,82.14
2019-05-22T06:21:14.668Z,82.18
2019-05-22T06:24:28.086Z,82.46
2019-05-22T06:27:30.045Z,83.15
2019-05-22T06:30:13.321Z,83.05
2019-05-22T06:33:20.600Z,83.27
2019-05-22T06:35:52.321Z,82.45
2019-05-22T06:39:03.176Z,81.25
2019-05-22T06:41:35.706Z,80.28
2019-05-22T06:44:42.587Z,79.78
2019-05-22T06:47:18.124Z,78.22
2019-05-22T06:49:57.083Z,76.65
2019-05-22T06:52:28.088Z,77.10
2019-05-22T06:54:58.773Z,76.56
2019-05-22T06:57:33.150Z,77.49
2019-05-22T07:00:15.220Z,78.17
2019-05-22T07:02:45.700Z,78.42
2019-05-22T07:05:16.373Z,76.58
2019-05-22T07:07:47.023Z,75.37
2019-05-22T07:10:17.166Z,77.14
2019-05-22T07:12:50.527Z,77.65
2019-05-22T07:15:31.761Z,76.28
2019-05-22T07:18:03.115Z,76.46
2019-05-22T07:20:35.669Z,76.52
2019-05-22T07:23:08.035Z,76.29
2019-05-22T07:25:40.223Z,76.47
2019-05-22T07:28:12.477Z,76.90
2019-05-22T07:30:42.848Z,76.78
2019-05-22T07:33:13.379Z,76.79
2019-05-22T07:35:56.724Z,76.85
2019-05-22T07:38:17.535Z,77.87
2019-05-22T07:40:50.398Z,77.10
2019-05-22T07:43:22.523Z,77.28
2019-05-22T07:45:55.617Z,77.32
2019-05-22T07:48:28.982Z,76.22
2019-05-22T07:50:59.542Z,74.31
2019-05-22T07:53:29.862Z,73.62
2019-05-22T07:56:02.701Z,72.96
2019-05-22T07:58:34.874Z,71.61
2019-05-22T08:01:09.655Z,72.47
2019-05-22T08:03:42.924Z,74.71
2019-05-22T08:06:17.028Z,74.50
2019-05-22T08:08:49.282Z,75.28
2019-05-22T08:11:19.808Z,75.10
2019-05-22T08:13:50.625Z,75.06
2019-05-22T08:16:21.085Z,75.31
2019-05-22T08:18:51.956Z,74.74
2019-05-22T08:21:23.606Z,73.93
2019-05-22T08:23:55.714Z,74.75
2019-05-22T08:26:27.064Z,74.27
2019-05-22T08:29:01.647Z,74.75
2019-05-22T08:31:32.062Z,73.71
2019-05-22T08:34:03.014Z,74.13
2019-05-22T08:36:38.444Z,69.93
2019-05-22T08:39:10.035Z,71.51
2019-05-22T08:41:43.302Z,71.18
2019-05-22T08:44:17.277Z,70.94
2019-05-22T08:46:46.920Z,70.32
2019-05-22T08:49:17.605Z,68.63
2019-05-22T08:51:48.827Z,69.31
2019-05-22T08:54:19.890Z,70.51
2019-05-22T08:56:51.459Z,70.30
2019-05-22T08:59:22.176Z,68.43
2019-05-22T09:01:54.708Z,69.58
2019-05-22T09:04:25.021Z,69.31
2019-05-22T22:12:52.515Z,85.04
2019-05-22T22:15:23.236Z,86.45
2019-05-22T22:17:53.589Z,86.13
2019-05-22T22:20:24.208Z,87.86
2019-05-22T22:22:54.459Z,88.82
2019-05-22T22:25:25.596Z,88.79
2019-05-22T22:27:56.079Z,88.96
2019-05-22T22:30:37.693Z,88.83
2019-05-22T22:33:10.595Z,88.98
2019-05-22T22:35:41.259Z,88.93
2019-05-22T22:38:11.649Z,89.40
2019-05-22T22:40:43.989Z,88.48
2019-05-22T22:43:15.429Z,88.63
2019-05-22T22:45:56.917Z,88.88
2019-05-22T22:48:33.013Z,88.49
2019-05-22T22:51:06.696Z,88.38
2019-05-22T22:53:49.693Z,88.69
2019-05-22T22:56:29.344Z,89.38
2019-05-22T22:59:10.598Z,88.61
2019-05-22T23:01:43.694Z,89.56
2019-05-22T23:04:16.653Z,90.11
2019-05-22T23:06:46.908Z,90.04
2019-05-22T23:09:18.766Z,89.52
2019-05-22T23:11:51.129Z,89.75
2019-05-22T23:14:23.030Z,88.58
2019-05-22T23:16:54.429Z,89.61
2019-05-22T23:19:32.083Z,89.25
2019-05-22T23:22:01.499Z,89.10
2019-05-22T23:24:37.982Z,89.34
2019-05-22T23:27:10.355Z,89.49
2019-05-22T23:29:42.368Z,89.29
2019-05-22T23:32:16.966Z,89.39
2019-05-22T23:34:48.106Z,89.95
2019-05-22T23:37:21.189Z,88.55
2019-05-22T23:39:53.827Z,89.00
2019-05-22T23:42:35.704Z,88.75
2019-05-22T23:45:10.411Z,88.14
2019-05-22T23:47:50.937Z,88.48
2019-05-22T23:50:23.247Z,88.45
2019-05-22T23:52:54.383Z,88.79
2019-05-22T23:55:25.402Z,88.76
2019-05-22T23:57:56.103Z,88.79
